Time;durP1;ratioP1;P1;durP2;ratioP2;P2;SDS_P1;SDS_P2;PMS_P1;PMS_P2;Temp;Humidity;BMP_temperature;BMP_pressure;BME280_temperature;BME280_humidity;BME280_pressure;Samples;Min_cycle;Max_cycle;Signal;HPM_P1;HPM_P2
2023/01/08 00:01:02;;;;;;;4.78;3.40;;;;;;;8.37;100.00;100332.53;5074622;28;20025;-80
2023/01/08 00:03:28;;;;;;;4.65;3.22;;;;;;;8.29;100.00;100330.13;5074958;28;20020;-80
2023/01/08 00:05:53;;;;;;;6.50;3.53;;;;;;;8.24;100.00;100325.91;5073386;28;20353;-81
2023/01/08 00:08:18;;;;;;;6.57;3.70;;;;;;;8.32;100.00;100345.63;5074559;28;20150;-80
2023/01/08 00:10:43;;;;;;;6.50;3.30;;;;;;;8.25;100.00;100345.81;5074870;28;20422;-80
2023/01/08 00:13:09;;;;;;;6.70;3.13;;;;;;;8.18;100.00;100345.94;5087596;28;20024;-80
2023/01/08 00:15:35;;;;;;;4.65;3.10;;;;;;;8.18;100.00;100340.75;5074732;28;20024;-80
2023/01/08 00:18:00;;;;;;;5.32;3.28;;;;;;;8.30;100.00;100344.81;5074649;28;20021;-80
2023/01/08 00:20:26;;;;;;;5.15;3.25;;;;;;;8.21;100.00;100342.44;5068907;28;20021;-80
2023/01/08 00:22:52;;;;;;;4.30;3.10;;;;;;;8.36;100.00;100336.03;5077188;28;20388;-80
2023/01/08 00:25:17;;;;;;;5.90;3.08;;;;;;;8.44;100.00;100334.16;5074736;28;20052;-80
2023/01/08 00:27:43;;;;;;;5.10;3.30;;;;;;;8.52;100.00;100342.63;5085400;28;20036;-80
2023/01/08 00:30:09;;;;;;;5.13;3.78;;;;;;;8.54;100.00;100337.41;5073997;28;20028;-80
2023/01/08 00:32:35;;;;;;;5.38;3.72;;;;;;;8.57;100.00;100325.19;5074712;28;20025;-80
2023/01/08 00:35:00;;;;;;;5.43;3.50;;;;;;;8.59;100.00;100326.00;5073742;28;20017;-80
2023/01/08 00:37:26;;;;;;;8.25;3.85;;;;;;;8.54;100.00;100312.28;5074326;28;20142;-80
2023/01/08 00:39:51;;;;;;;7.65;3.38;;;;;;;8.60;100.00;100309.53;5081483;28;20037;-80
2023/01/08 00:42:17;;;;;;;7.32;3.42;;;;;;;8.52;100.00;100290.66;5072829;28;20116;-80
2023/01/08 00:44:42;;;;;;;10.38;3.88;;;;;;;8.62;100.00;100305.13;5063488;28;20040;-80
2023/01/08 00:47:08;;;;;;;10.02;3.53;;;;;;;8.64;100.00;100298.16;5072674;28;20102;-80
2023/01/08 00:49:35;;;;;;;5.88;3.63;;;;;;;8.47;100.00;100271.75;5076407;28;20028;-80
2023/01/08 00:52:00;;;;;;;7.90;3.30;;;;;;;8.51;100.00;100277.72;5074331;28;20052;-80
2023/01/08 00:54:26;;;;;;;7.78;3.85;;;;;;;8.51;100.00;100273.38;5073705;28;20105;-80
2023/01/08 00:56:54;;;;;;;9.32;3.75;;;;;;;8.56;100.00;100292.28;5072922;28;20377;-80
2023/01/08 00:59:20;;;;;;;6.13;3.90;;;;;;;8.53;100.00;100292.34;5072764;28;20435;-80
2023/01/08 01:01:45;;;;;;;5.90;3.75;;;;;;;8.50;100.00;100296.78;5073005;28;20033;-80
2023/01/08 01:04:10;;;;;;;5.18;4.03;;;;;;;8.43;100.00;100280.47;5075483;28;20054;-80
2023/01/08 01:06:36;;;;;;;5.63;4.05;;;;;;;8.47;100.00;100279.53;5081724;28;20086;-80
2023/01/08 01:09:01;;;;;;;9.07;4.30;;;;;;;8.54;100.00;100278.50;5079386;28;20029;-80
2023/01/08 01:11:27;;;;;;;8.48;3.90;;;;;;;8.58;100.00;100279.28;5089711;28;20111;-80
2023/01/08 01:13:56;;;;;;;9.73;4.88;;;;;;;8.55;100.00;100264.59;5070311;28;20017;-80
2023/01/08 01:16:22;;;;;;;8.57;4.20;;;;;;;8.54;100.00;100275.06;5075484;28;20029;-80
2023/01/08 01:18:47;;;;;;;7.53;3.75;;;;;;;8.51;100.00;100264.72;5078290;28;20035;-80
2023/01/08 01:21:28;;;;;;;6.55;3.42;;;;;;;8.46;100.00;100270.00;5082388;28;20099;-80
2023/01/08 01:23:56;;;;;;;5.60;4.05;;;;;;;8.44;100.00;100264.03;5072719;28;20415;-80
2023/01/08 01:26:23;;;;;;;8.00;4.25;;;;;;;8.53;100.00;100270.72;5072818;28;20059;-80
2023/01/08 01:28:51;;;;;;;6.22;3.83;;;;;;;8.63;100.00;100264.41;5073171;28;20013;-80
2023/01/08 01:31:18;;;;;;;7.53;3.70;;;;;;;8.64;100.00;100269.59;5069168;28;20064;-80
2023/01/08 01:33:43;;;;;;;6.80;3.80;;;;;;;8.66;100.00;100273.00;5073382;28;20357;-80
2023/01/08 01:36:11;;;;;;;8.40;3.88;;;;;;;8.61;100.00;100259.25;5072702;28;20027;-80
2023/01/08 01:38:36;;;;;;;6.78;3.70;;;;;;;8.63;100.00;100256.63;5072682;28;20095;-81
2023/01/08 01:41:02;;;;;;;7.53;3.85;;;;;;;8.72;100.00;100271.97;5072826;28;20103;-80
2023/01/08 01:43:41;;;;;;;6.43;4.07;;;;;;;8.72;100.00;100282.38;5072873;28;20032;-80
2023/01/08 01:46:21;;;;;;;7.93;3.80;;;;;;;8.58;100.00;100281.88;5070807;28;20460;-80
2023/01/08 01:48:50;;;;;;;8.90;3.80;;;;;;;8.35;100.00;100292.78;5072472;28;20025;-80
2023/01/08 01:51:16;;;;;;;7.30;3.28;;;;;;;8.28;100.00;100299.00;5071526;28;20349;-80
2023/01/08 01:53:42;;;;;;;6.57;3.10;;;;;;;8.12;100.00;100304.53;5072815;28;20538;-80
2023/01/08 01:56:08;;;;;;;3.95;2.58;;;;;;;7.95;100.00;100304.91;5072472;28;20020;-80
2023/01/08 01:58:33;;;;;;;6.78;2.80;;;;;;;7.86;100.00;100306.81;5071764;28;20895;-79
2023/01/08 02:01:03;;;;;;;5.18;2.47;;;;;;;7.73;100.00;100314.84;5073127;28;20029;-80
2023/01/08 02:03:34;;;;;;;4.40;2.15;;;;;;;7.62;100.00;100315.94;5072329;28;20029;-80
2023/01/08 02:06:09;;;;;;;4.35;2.20;;;;;;;7.52;100.00;100315.28;5059445;28;20059;-80
2023/01/08 02:08:55;;;;;;;5.45;1.90;;;;;;;7.40;100.00;100302.56;5080176;28;20017;-80
2023/01/08 02:11:27;;;;;;;5.53;1.90;;;;;;;7.27;100.00;100289.81;5072284;28;20024;-79
2023/01/08 02:14:03;;;;;;;5.00;1.75;;;;;;;7.20;100.00;100290.81;5058368;28;20427;-80
2023/01/08 02:16:38;;;;;;;6.30;1.60;;;;;;;7.11;100.00;100290.13;5072217;28;20120;-80
2023/01/08 02:19:15;;;;;;;6.15;1.55;;;;;;;7.02;100.00;100278.19;5059743;28;20112;-80
2023/01/08 02:21:58;;;;;;;4.65;1.60;;;;;;;6.95;100.00;100271.41;5070718;28;20032;-80
2023/01/08 02:24:35;;;;;;;3.25;1.15;;;;;;;6.88;100.00;100269.81;5071891;28;20029;-79
2023/01/08 02:27:03;;;;;;;3.58;1.55;;;;;;;6.86;100.00;100267.22;5070025;28;20434;-80
2023/01/08 02:29:31;;;;;;;4.32;1.20;;;;;;;6.81;100.00;100269.06;5071849;28;20059;-80
2023/01/08 02:31:56;;;;;;;6.40;1.50;;;;;;;6.75;100.00;100275.19;5072626;28;20059;-80
2023/01/08 02:34:22;;;;;;;5.35;1.38;;;;;;;6.78;100.00;100274.28;5071346;28;20052;-79
2023/01/08 02:36:51;;;;;;;4.15;1.50;;;;;;;6.73;100.00;100266.56;5071962;28;20020;-79
2023/01/08 02:39:28;;;;;;;5.65;1.33;;;;;;;6.74;100.00;100265.72;5071324;28;20103;-80
2023/01/08 02:42:09;;;;;;;6.25;1.35;;;;;;;6.71;100.00;100275.28;5071328;28;20116;-80
2023/01/08 02:44:50;;;;;;;5.70;1.85;;;;;;;6.70;100.00;100270.97;5068540;28;20017;-79
2023/01/08 02:47:22;;;;;;;4.60;1.30;;;;;;;6.60;100.00;100254.72;5069594;28;20483;-79
2023/01/08 02:49:56;;;;;;;2.58;1.10;;;;;;;6.63;100.00;100259.00;5071674;28;20035;-80
2023/01/08 02:52:25;;;;;;;7.43;1.52;;;;;;;6.66;100.00;100264.13;5071560;28;20682;-80
2023/01/08 02:54:51;;;;;;;4.40;1.13;;;;;;;6.63;100.00;100259.84;5071388;28;20119;-80
2023/01/08 02:57:18;;;;;;;5.57;1.05;;;;;;;6.60;100.00;100246.09;5070792;28;20028;-80
2023/01/08 02:59:47;;;;;;;5.22;1.15;;;;;;;6.59;100.00;100246.97;5071975;28;20464;-80
2023/01/08 03:02:12;;;;;;;2.92;0.95;;;;;;;6.55;100.00;100235.81;5070830;28;20029;-80
2023/01/08 03:04:56;;;;;;;9.02;1.33;;;;;;;6.50;100.00;100235.03;5072344;28;20032;-80
2023/01/08 03:07:22;;;;;;;;;;;;;;;6.49;100.00;100241.09;5074404;28;20129;-80
2023/01/08 03:09:47;;;;;;;10.82;1.42;;;;;;;6.52;100.00;100233.28;5072382;28;19962;-80
2023/01/08 03:12:17;;;;;;;7.30;1.23;;;;;;;6.50;100.00;100248.81;5074431;28;20132;-80
2023/01/08 03:14:49;;;;;;;8.85;1.20;;;;;;;6.45;100.00;100239.44;5075432;28;20060;-80
2023/01/08 03:17:30;;;;;;;4.45;1.00;;;;;;;6.29;100.00;100220.72;5078979;28;20012;-80
2023/01/08 03:20:00;;;;;;;4.40;1.35;;;;;;;6.45;100.00;100236.84;5073046;28;20025;-79
2023/01/08 03:22:29;;;;;;;7.88;1.40;;;;;;;6.39;100.00;100235.22;5075454;28;20037;-79
2023/01/08 03:24:57;;;;;;;7.95;1.00;;;;;;;6.37;100.00;100228.34;5075020;28;20025;-80
2023/01/08 03:27:28;;;;;;;9.65;1.52;;;;;;;6.43;100.00;100246.38;5074596;28;20031;-79
2023/01/08 03:29:57;;;;;;;5.43;1.42;;;;;;;6.33;100.00;100225.78;5070392;28;20175;-80
2023/01/08 03:32:24;;;;;;;5.35;1.17;;;;;;;6.36;100.00;100224.06;5074272;28;20102;-80
2023/01/08 03:34:53;;;;;;;9.68;1.23;;;;;;;6.39;100.00;100234.34;5071407;28;20053;-80
2023/01/08 03:37:25;;;;;;;7.40;1.25;;;;;;;6.38;100.00;100219.72;5077781;28;20032;-80
2023/01/08 03:40:03;;;;;;;8.20;1.35;;;;;;;6.40;100.00;100229.13;5074717;28;20021;-80
2023/01/08 03:42:30;;;;;;;8.77;1.48;;;;;;;6.40;100.00;100231.72;5078321;28;20036;-80
2023/01/08 03:44:56;;;;;;;6.25;1.50;;;;;;;6.36;100.00;100230.06;5082194;28;20036;-80
2023/01/08 03:47:23;;;;;;;10.80;1.63;;;;;;;6.37;100.00;100226.59;5071396;28;20472;-80
2023/01/08 03:49:51;;;;;;;9.13;1.40;;;;;;;6.35;100.00;100222.34;5082024;28;20031;-80
2023/01/08 03:52:21;;;;;;;7.25;1.48;;;;;;;6.40;100.00;100225.69;5074102;28;20051;-80
2023/01/08 03:54:46;;;;;;;6.05;1.45;;;;;;;6.38;100.00;100217.97;5075197;28;20029;-79
2023/01/08 03:57:12;;;;;;;7.38;2.08;;;;;;;6.38;100.00;100212.78;5074932;28;20055;-80
2023/01/08 03:59:37;;;;;;;5.75;1.67;;;;;;;6.35;100.00;100210.25;5074902;28;20051;-80
2023/01/08 04:02:02;;;;;;;5.05;1.70;;;;;;;6.44;100.00;100211.81;5064924;28;20033;-80
2023/01/08 04:04:27;;;;;;;3.45;1.30;;;;;;;6.47;100.00;100219.53;5074108;28;20107;-79
2023/01/08 04:06:53;;;;;;;7.05;1.30;;;;;;;6.41;100.00;100202.38;5074251;28;20479;-80
2023/01/08 04:09:18;;;;;;;6.32;1.83;;;;;;;6.38;100.00;100206.78;5074675;28;20024;-79
2023/01/08 04:11:43;;;;;;;6.63;1.75;;;;;;;6.33;100.00;100201.66;5075138;28;20016;-80
2023/01/08 04:14:11;;;;;;;6.45;1.80;;;;;;;6.33;100.00;100199.91;5073541;28;20029;-80
2023/01/08 04:16:36;;;;;;;4.82;1.45;;;;;;;6.30;100.00;100188.75;5074888;28;20067;-79
2023/01/08 04:19:02;;;;;;;7.53;2.38;;;;;;;6.27;100.00;100188.78;5074035;28;20040;-80
2023/01/08 04:21:27;;;;;;;6.75;1.50;;;;;;;6.29;100.00;100202.59;5073301;28;20062;-80
2023/01/08 04:23:53;;;;;;;6.82;1.92;;;;;;;6.24;100.00;100204.38;5074648;28;20033;-80
2023/01/08 04:26:18;;;;;;;7.93;1.80;;;;;;;6.31;100.00;100204.28;5073563;28;20024;-80
2023/01/08 04:28:44;;;;;;;5.30;1.90;;;;;;;6.30;100.00;100202.53;5074748;28;20025;-80
2023/01/08 04:31:09;;;;;;;5.90;2.00;;;;;;;6.31;100.00;100180.97;5074199;28;20024;-80
2023/01/08 04:33:35;;;;;;;7.05;2.22;;;;;;;6.39;100.00;100190.34;5073816;28;20062;-79
2023/01/08 04:36:01;;;;;;;6.00;2.47;;;;;;;6.38;100.00;100192.09;5074458;28;20031;-80
2023/01/08 04:38:26;;;;;;;4.05;1.83;;;;;;;6.39;100.00;100187.75;5074638;28;20024;-79
2023/01/08 04:40:57;;;;;;;7.57;2.25;;;;;;;6.33;100.00;100186.13;5073886;28;20021;-80
2023/01/08 04:43:22;;;;;;;12.05;2.67;;;;;;;6.28;100.00;100169.81;5073440;28;20041;-80
2023/01/08 04:45:48;;;;;;;8.20;2.20;;;;;;;6.31;100.00;100183.56;5069952;28;20032;-80
2023/01/08 04:48:13;;;;;;;7.30;2.47;;;;;;;6.23;100.00;100163.84;5072262;28;20028;-80
2023/01/08 04:50:38;;;;;;;6.35;2.28;;;;;;;6.29;100.00;100187.91;5081556;28;20146;-80
2023/01/08 04:53:03;;;;;;;10.48;2.80;;;;;;;6.27;100.00;100189.66;5081917;28;20017;-80
2023/01/08 04:55:29;;;;;;;8.50;2.40;;;;;;;6.21;100.00;100181.13;5072711;28;20017;-80
2023/01/08 04:57:54;;;;;;;4.90;2.47;;;;;;;6.26;100.00;100187.09;5084053;28;20463;-80
2023/01/08 05:00:19;;;;;;;7.95;2.05;;;;;;;6.29;100.00;100200.00;5073518;28;20055;-80
2023/01/08 05:02:45;;;;;;;8.07;2.03;;;;;;;6.24;100.00;100191.44;5073298;28;20032;-80
2023/01/08 05:05:10;;;;;;;7.40;1.83;;;;;;;6.21;100.00;100187.19;5073568;28;20032;-80
2023/01/08 05:07:35;;;;;;;4.03;1.60;;;;;;;6.16;100.00;100185.53;5073535;28;20064;-80
2023/01/08 05:10:00;;;;;;;4.95;1.67;;;;;;;6.14;100.00;100180.38;5073061;28;20081;-80
2023/01/08 05:12:26;;;;;;;3.65;1.40;;;;;;;6.15;100.00;100186.41;5072749;28;20472;-80
2023/01/08 05:14:51;;;;;;;6.85;1.40;;;;;;;6.11;100.00;100201.13;5073982;28;20035;-80
2023/01/08 05:17:16;;;;;;;3.40;1.30;;;;;;;6.05;100.00;100186.56;5072609;28;20028;-80
2023/01/08 05:19:42;;;;;;;2.55;1.30;;;;;;;6.05;100.00;100188.31;5073545;28;20079;-80
2023/01/08 05:22:07;;;;;;;3.35;1.10;;;;;;;6.03;100.00;100193.50;5073663;28;20020;-80
2023/01/08 05:24:32;;;;;;;2.90;1.02;;;;;;;6.02;100.00;100180.59;5072890;28;20107;-79
2023/01/08 05:26:57;;;;;;;2.15;1.02;;;;;;;6.05;100.00;100183.97;5073728;28;20012;-80
2023/01/08 05:29:23;;;;;;;4.35;1.40;;;;;;;6.01;100.00;100176.28;5071287;28;20414;-80
2023/01/08 05:31:48;;;;;;;4.00;1.33;;;;;;;6.03;100.00;100175.38;5073582;28;20024;-80
2023/01/08 05:34:13;;;;;;;4.38;1.40;;;;;;;6.04;100.00;100165.88;5072626;28;20578;-80
2023/01/08 05:36:39;;;;;;;7.50;1.98;;;;;;;5.94;100.00;100143.63;5072644;28;20029;-80
2023/01/08 05:39:04;;;;;;;4.13;1.20;;;;;;;6.02;100.00;100171.09;5072996;28;20468;-80
2023/01/08 05:41:29;;;;;;;4.97;1.50;;;;;;;5.89;100.00;100156.59;5072790;28;20111;-80
2023/01/08 05:43:55;;;;;;;5.03;1.23;;;;;;;5.86;100.00;100177.34;5072258;28;20073;-80
2023/01/08 05:46:20;;;;;;;8.93;1.30;;;;;;;5.70;100.00;100165.50;5071156;28;20102;-80
2023/01/08 05:48:45;;;;;;;4.78;1.30;;;;;;;5.67;100.00;100170.72;5072783;28;20460;-80
2023/01/08 05:51:10;;;;;;;6.13;1.75;;;;;;;5.58;100.00;100167.38;5071833;28;20052;-80
2023/01/08 05:53:36;;;;;;;4.47;1.40;;;;;;;5.54;100.00;100172.63;5072672;28;20376;-80
2023/01/08 05:56:04;;;;;;;6.22;1.52;;;;;;;5.41;100.00;100174.50;5072380;28;20119;-80
2023/01/08 05:58:29;;;;;;;7.53;1.80;;;;;;;5.31;100.00;100172.91;5074545;28;20032;-80
2023/01/08 06:01:04;;;;;;;5.32;1.40;;;;;;;5.27;100.00;100182.44;5074739;28;20033;-80
2023/01/08 06:03:29;;;;;;;4.65;1.60;;;;;;;5.10;100.00;100174.00;5066728;28;20386;-80
2023/01/08 06:06:02;;;;;;;7.20;1.77;;;;;;;5.15;100.00;100190.34;5071632;28;20024;-81
2023/01/08 06:08:29;;;;;;;4.88;1.60;;;;;;;5.08;100.00;100192.13;5075889;28;20071;-80
2023/01/08 06:10:59;;;;;;;5.20;1.42;;;;;;;5.06;100.00;100198.19;5077181;28;20407;-80
2023/01/08 06:13:25;;;;;;;7.72;1.98;;;;;;;5.02;100.00;100206.84;5071744;28;20060;-80
2023/01/08 06:15:50;;;;;;;9.90;1.95;;;;;;;4.96;100.00;100206.91;5086172;28;20107;-80
2023/01/08 06:18:15;;;;;;;5.35;1.52;;;;;;;4.88;100.00;100197.53;5072106;28;20072;-80
2023/01/08 06:20:41;;;;;;;5.72;2.05;;;;;;;4.83;100.00;100191.53;5070629;28;20075;-80
2023/01/08 06:23:07;;;;;;;4.10;1.40;;;;;;;4.84;100.00;100211.34;5072517;28;20033;-80
2023/01/08 06:25:33;;;;;;;5.50;1.67;;;;;;;4.86;100.00;100206.16;5071646;28;20032;-80
2023/01/08 06:27:58;;;;;;;10.10;2.13;;;;;;;4.88;100.00;100207.00;5083743;28;20376;-80
2023/01/08 06:30:23;;;;;;;5.90;1.55;;;;;;;4.73;100.00;100189.06;5072008;28;20103;-80
2023/01/08 06:32:48;;;;;;;5.35;1.58;;;;;;;4.79;100.00;100205.34;5071482;28;20021;-80
2023/01/08 06:35:14;;;;;;;7.32;1.70;;;;;;;4.72;100.00;100201.13;5072009;28;20039;-80
2023/01/08 06:37:39;;;;;;;7.20;2.00;;;;;;;4.74;100.00;100217.47;5071568;28;20104;-80
2023/01/08 06:40:05;;;;;;;8.60;1.77;;;;;;;4.72;100.00;100213.19;5071603;28;20430;-79
2023/01/08 06:42:30;;;;;;;7.18;1.60;;;;;;;4.68;100.00;100217.53;5072092;28;20028;-80
2023/01/08 06:44:55;;;;;;;10.32;1.50;;;;;;;4.56;100.00;100207.31;5070036;28;20025;-80
2023/01/08 06:47:20;;;;;;;9.35;1.60;;;;;;;4.57;100.00;100220.19;5070925;28;20031;-79
2023/01/08 06:49:46;;;;;;;5.10;1.50;;;;;;;4.52;100.00;100216.81;5072087;28;20029;-80
2023/01/08 06:52:11;;;;;;;11.60;1.77;;;;;;;4.51;100.00;100224.53;5071663;28;20020;-80
2023/01/08 06:54:36;;;;;;;8.98;1.83;;;;;;;4.52;100.00;100227.13;5070549;28;20033;-80
2023/01/08 06:57:02;;;;;;;8.57;1.90;;;;;;;4.48;100.00;100225.44;5071986;28;20047;-80
2023/01/08 06:59:27;;;;;;;8.30;1.90;;;;;;;4.52;100.00;100232.28;5071961;28;20430;-80
2023/01/08 07:01:52;;;;;;;12.55;2.20;;;;;;;4.54;100.00;100230.53;5071187;28;20029;-79
2023/01/08 07:04:18;;;;;;;8.98;1.80;;;;;;;4.51;100.00;100230.56;5080229;28;20376;-80
2023/01/08 07:06:44;;;;;;;12.20;1.88;;;;;;;4.56;100.00;100227.97;5071942;28;20040;-80
2023/01/08 07:09:13;;;;;;;9.55;2.00;;;;;;;4.59;100.00;100230.50;5070839;28;20571;-80
2023/01/08 07:11:40;;;;;;;11.60;2.00;;;;;;;4.61;100.00;100223.59;5071131;28;20111;-80
2023/01/08 07:14:05;;;;;;;11.50;2.72;;;;;;;4.60;100.00;100220.16;5071904;28;20020;-80
2023/01/08 07:16:31;;;;;;;11.68;2.45;;;;;;;4.61;100.00;100216.72;5070046;28;20106;-80
2023/01/08 07:18:57;;;;;;;8.88;1.90;;;;;;;4.61;100.00;100224.47;5073542;28;20081;-80
2023/01/08 07:21:22;;;;;;;11.90;2.08;;;;;;;4.59;100.00;100204.69;5066129;28;20058;-80
2023/01/08 07:23:50;;;;;;;11.98;2.10;;;;;;;4.62;100.00;100223.59;5071257;28;20038;-80
2023/01/08 07:26:16;;;;;;;10.13;2.10;;;;;;;4.62;100.00;100218.44;5071080;28;20108;-80
2023/01/08 07:28:42;;;;;;;10.95;2.35;;;;;;;4.62;100.00;100223.59;5075097;28;20059;-80
2023/01/08 07:31:07;;;;;;;8.52;2.30;;;;;;;4.59;100.00;100213.28;5077001;28;20048;-80
2023/01/08 07:33:33;;;;;;;11.80;2.03;;;;;;;4.57;100.00;100229.66;5071270;28;20028;-80
2023/01/08 07:35:58;;;;;;;12.40;1.80;;;;;;;4.54;100.00;100224.53;5075967;28;20025;-80
2023/01/08 07:38:24;;;;;;;11.27;2.00;;;;;;;4.48;100.00;100215.13;5071409;28;20384;-80
2023/01/08 07:40:49;;;;;;;9.50;2.42;;;;;;;4.40;100.00;100224.66;5071577;28;20024;-80
2023/01/08 07:43:14;;;;;;;9.65;1.75;;;;;;;4.36;100.00;100228.97;5069235;28;20025;-80
2023/01/08 07:45:40;;;;;;;14.48;2.25;;;;;;;4.32;100.00;100216.13;5059384;28;20107;-80
2023/01/08 07:48:06;;;;;;;9.13;2.20;;;;;;;4.32;100.00;100221.28;5073907;28;20473;-80
2023/01/08 07:50:32;;;;;;;8.40;2.03;;;;;;;4.25;100.00;100212.72;5056643;28;20028;-79
2023/01/08 07:53:01;;;;;;;7.93;1.70;;;;;;;4.23;100.00;100210.16;5060516;28;20024;-79
2023/01/08 07:55:28;;;;;;;11.73;1.50;;;;;;;4.27;100.00;100210.13;5069185;28;20024;-80
2023/01/08 07:57:54;;;;;;;7.18;1.75;;;;;;;4.22;100.00;100212.75;5074372;28;20032;-80
2023/01/08 08:00:19;;;;;;;7.75;1.45;;;;;;;4.22;100.00;100198.13;5074821;28;20368;-80
2023/01/08 08:02:45;;;;;;;8.55;1.73;;;;;;;4.31;100.00;100211.81;5074050;28;20024;-80
2023/01/08 08:05:10;;;;;;;9.68;2.20;;;;;;;4.28;100.00;100194.63;5073796;28;20070;-80
2023/01/08 08:07:35;;;;;;;7.22;1.92;;;;;;;4.37;100.00;100193.69;5074743;28;20098;-80
2023/01/08 08:10:02;;;;;;;5.45;1.42;;;;;;;4.45;100.00;100195.34;5075077;28;20055;-79
2023/01/08 08:12:27;;;;;;;8.02;1.55;;;;;;;4.56;100.00;100196.97;5074068;28;20020;-80
2023/01/08 08:14:53;;;;;;;13.45;2.10;;;;;;;4.64;100.00;100187.41;5075231;28;20423;-79
2023/01/08 08:17:18;;;;;;;11.00;2.15;;;;;;;4.69;100.00;100176.19;5074225;28;20103;-80
2023/01/08 08:19:44;;;;;;;5.93;1.75;;;;;;;4.80;100.00;100170.91;5073576;28;20024;-80
2023/01/08 08:22:10;;;;;;;12.88;2.05;;;;;;;4.89;100.00;100173.38;5074521;28;20031;-80
2023/01/08 08:24:35;;;;;;;9.30;1.73;;;;;;;5.02;100.00;100176.69;5074690;28;20013;-80
2023/01/08 08:27:00;;;;;;;9.98;1.85;;;;;;;5.10;100.00;100163.69;5074054;28;20421;-80
2023/01/08 08:29:25;;;;;;;8.55;1.65;;;;;;;5.13;100.00;100158.47;5074947;28;20606;-80
2023/01/08 08:31:51;;;;;;;13.10;2.45;;;;;;;5.25;100.00;100180.75;5076452;28;20032;-79
2023/01/08 08:34:16;;;;;;;10.40;1.95;;;;;;;5.22;100.00;100176.47;5073600;28;20032;-80
2023/01/08 08:36:41;;;;;;;8.35;1.88;;;;;;;5.25;100.00;100173.84;5073831;28;20024;-80
2023/01/08 08:39:07;;;;;;;9.43;1.70;;;;;;;5.19;100.00;100162.72;5074087;28;20321;-80
2023/01/08 08:41:32;;;;;;;5.57;1.92;;;;;;;5.20;100.00;100175.63;5073862;28;20016;-80
2023/01/08 08:43:57;;;;;;;6.50;2.30;;;;;;;5.16;100.00;100173.94;5074223;28;20025;-79
2023/01/08 08:46:24;;;;;;;11.68;1.90;;;;;;;5.19;100.00;100168.75;5072741;28;20029;-79
2023/01/08 08:48:49;;;;;;;8.77;1.80;;;;;;;5.17;100.00;100178.25;5081859;28;20052;-80
2023/01/08 08:51:15;;;;;;;9.15;2.20;;;;;;;5.08;100.00;100160.28;5073835;28;20044;-80
2023/01/08 08:53:40;;;;;;;10.18;2.47;;;;;;;5.11;100.00;100168.00;5072636;28;20028;-80
2023/01/08 08:56:05;;;;;;;10.45;2.00;;;;;;;5.06;100.00;100160.28;5074040;28;20050;-80
2023/01/08 08:58:31;;;;;;;6.43;1.60;;;;;;;5.08;100.00;100163.72;5073683;28;20021;-80
2023/01/08 09:01:03;;;;;;;10.38;2.20;;;;;;;5.01;100.00;100156.06;5070796;28;20035;-81
2023/01/08 09:03:29;;;;;;;6.95;2.05;;;;;;;5.06;100.00;100165.44;5073111;28;20119;-80
2023/01/08 09:05:54;;;;;;;8.80;2.05;;;;;;;4.96;100.00;100152.66;5073570;28;20055;-80
2023/01/08 09:08:20;;;;;;;11.18;2.33;;;;;;;4.93;100.00;100150.97;5072545;28;20044;-80
2023/01/08 09:10:45;;;;;;;9.77;2.10;;;;;;;4.86;100.00;100146.75;5073131;28;20029;-81
2023/01/08 09:13:10;;;;;;;11.60;2.70;;;;;;;4.96;100.00;100155.25;5078978;28;20073;-77
2023/01/08 09:15:36;;;;;;;5.72;2.15;;;;;;;4.92;100.00;100149.25;5072455;28;20043;-79
2023/01/08 09:18:02;;;;;;;10.27;2.45;;;;;;;4.89;100.00;100155.31;5069157;28;20519;-79
2023/01/08 09:20:28;;;;;;;13.55;2.25;;;;;;;4.91;100.00;100147.56;5066089;28;20029;-79
2023/01/08 09:22:53;;;;;;;9.77;1.80;;;;;;;4.93;100.00;100150.97;5072406;28;20430;-79
2023/01/08 09:25:19;;;;;;;5.68;1.77;;;;;;;4.89;100.00;100141.53;5073413;28;20029;-79
2023/01/08 09:27:44;;;;;;;8.65;2.05;;;;;;;4.93;100.00;100141.47;5069336;28;20021;-80
2023/01/08 09:30:10;;;;;;;6.85;2.10;;;;;;;4.97;100.00;100138.88;5071686;28;20048;-79
2023/01/08 09:32:36;;;;;;;9.45;1.80;;;;;;;4.92;100.00;100142.38;5073327;28;20024;-79
2023/01/08 09:35:02;;;;;;;10.48;2.08;;;;;;;5.02;100.00;100137.94;5073299;28;20020;-80
2023/01/08 09:37:28;;;;;;;11.02;2.08;;;;;;;4.96;100.00;100125.09;5070365;28;20093;-79
2023/01/08 09:39:53;;;;;;;10.90;2.25;;;;;;;5.03;100.00;100133.63;5063032;28;20028;-80
2023/01/08 09:42:23;;;;;;;10.13;2.35;;;;;;;5.04;100.00;100128.47;5072923;28;20036;-80
2023/01/08 09:44:52;;;;;;;9.05;1.92;;;;;;;5.06;100.00;100125.84;5072578;28;20032;-80
2023/01/08 09:47:27;;;;;;;10.13;2.17;;;;;;;5.06;100.00;100128.44;5068129;28;20115;-80
2023/01/08 09:49:59;;;;;;;11.93;2.22;;;;;;;5.09;100.00;100123.22;5071909;28;20130;-79
2023/01/08 09:52:24;;;;;;;13.20;2.42;;;;;;;5.12;100.00;100120.59;5067658;28;20036;-80
2023/01/08 09:54:49;;;;;;;9.20;2.30;;;;;;;5.13;100.00;100114.56;5064572;28;20020;-79
2023/01/08 09:57:19;;;;;;;7.18;2.10;;;;;;;5.19;100.00;100111.88;5071627;28;20147;-79
2023/01/08 09:59:46;;;;;;;10.32;2.10;;;;;;;5.19;100.00;100114.47;5070421;28;20036;-80
2023/01/08 10:02:17;;;;;;;14.07;2.90;;;;;;;5.21;100.00;100111.88;5071859;28;20029;-80
2023/01/08 10:04:43;;;;;;;11.30;1.80;;;;;;;5.22;100.00;100108.41;5072071;28;20032;-80
2023/01/08 10:07:21;;;;;;;8.63;2.28;;;;;;;5.20;100.00;100107.56;5071995;28;20045;-79
2023/01/08 10:09:50;;;;;;;11.00;2.50;;;;;;;5.33;100.00;100114.28;5068710;28;20040;-80
2023/01/08 10:12:24;;;;;;;7.47;2.45;;;;;;;5.39;100.00;100104.75;5070425;28;20040;-80
2023/01/08 10:14:51;;;;;;;10.13;2.08;;;;;;;5.48;100.00;100106.31;5072670;28;20024;-80
2023/01/08 10:17:21;;;;;;;11.07;2.38;;;;;;;5.53;100.00;100101.97;5062859;28;20060;-80
2023/01/08 10:19:46;;;;;;;9.40;2.00;;;;;;;5.52;100.00;100089.03;5070258;28;20106;-80
2023/01/08 10:22:16;;;;;;;5.57;1.50;;;;;;;5.62;100.00;100088.91;5071294;28;20032;-80
2023/01/08 10:24:42;;;;;;;11.32;1.85;;;;;;;5.73;100.00;100080.97;5058248;28;20024;-80
2023/01/08 10:27:15;;;;;;;6.07;2.00;;;;;;;5.82;100.00;100092.88;5071691;28;20552;-80
2023/01/08 10:29:41;;;;;;;4.28;1.60;;;;;;;5.79;100.00;100086.03;5071437;28;20036;-79
2023/01/08 10:32:18;;;;;;;6.97;2.15;;;;;;;5.83;100.00;100084.25;5071554;28;20035;-79
2023/01/08 10:34:47;;;;;;;7.00;1.55;;;;;;;5.91;100.00;100089.28;5071553;28;20079;-79
2023/01/08 10:37:15;;;;;;;12.68;1.60;;;;;;;6.01;100.00;100085.72;5067411;28;20492;-78
2023/01/08 10:39:46;;;;;;;6.13;1.55;;;;;;;6.05;100.00;100087.38;5054723;28;20480;-77
2023/01/08 10:42:12;;;;;;;4.07;1.60;;;;;;;6.06;100.00;100078.72;5058293;28;20499;-77
2023/01/08 10:44:37;;;;;;;5.20;1.58;;;;;;;6.15;100.00;100070.81;5072279;28;20068;-77
2023/01/08 10:47:03;;;;;;;2.55;0.90;;;;;;;6.22;100.00;100063.78;5067091;28;20052;-77
2023/01/08 10:49:33;;;;;;;4.25;1.13;;;;;;;6.25;100.00;100050.81;5070239;28;20028;-77
2023/01/08 10:51:59;;;;;;;3.67;1.00;;;;;;;6.40;100.00;100053.09;5071346;28;20074;-77
2023/01/08 10:54:38;;;;;;;6.63;1.20;;;;;;;6.50;100.00;100056.34;5071265;28;20016;-78
2023/01/08 10:57:26;;;;;;;10.80;1.80;;;;;;;6.68;100.00;100049.97;5071795;28;20466;-77
2023/01/08 10:59:52;;;;;;;5.70;1.20;;;;;;;6.73;100.00;100048.97;5070564;28;20023;-77
2023/01/08 11:02:35;;;;;;;3.13;1.10;;;;;;;6.74;100.00;100044.66;5070674;28;20090;-77
2023/01/08 11:05:01;;;;;;;2.08;0.80;;;;;;;6.73;100.00;100043.78;5072218;28;20031;-77
2023/01/08 11:07:34;;;;;;;1.48;0.70;;;;;;;6.76;100.00;100045.47;5071579;28;20033;-78
2023/01/08 11:10:00;;;;;;;3.10;0.80;;;;;;;6.83;100.00;100051.38;5071911;28;20051;-77
2023/01/08 11:12:39;;;;;;;2.65;0.90;;;;;;;6.83;100.00;100030.66;5070524;28;20376;-77
2023/01/08 11:15:33;;;;;;;2.55;0.60;;;;;;;6.90;100.00;100040.00;5070011;28;20384;-77
2023/01/08 11:18:06;;;;;;;1.17;0.43;;;;;;;6.94;100.00;100028.69;5071238;28;20485;-78
2023/01/08 11:20:32;;;;;;;1.73;0.50;;;;;;;6.90;100.00;100024.44;5072941;28;20032;-78
2023/01/08 11:23:21;;;;;;;1.48;0.60;;;;;;;6.97;100.00;100020.88;5069999;28;20087;-77
2023/01/08 11:25:54;;;;;;;2.00;0.65;;;;;;;7.04;100.00;100017.25;5069705;28;20053;-80